createdAt,value
2019-03-04T00:00:08.267Z,2.93
2019-03-04T00:02:34.254Z,2.97
2019-03-04T00:05:00.314Z,2.70
2019-03-04T00:07:26.282Z,3.17
2019-03-04T00:09:52.262Z,2.90
2019-03-04T00:12:18.959Z,2.53
2019-03-04T00:14:44.941Z,2.53
2019-03-04T00:17:11.640Z,3.17
2019-03-04T00:19:37.617Z,3.23
2019-03-04T00:22:03.569Z,2.80
2019-03-04T00:24:29.517Z,3.27
2019-03-04T00:26:55.538Z,2.60
2019-03-04T00:29:21.495Z,2.53
2019-03-04T00:31:47.489Z,2.43
2019-03-04T00:34:13.438Z,2.23
2019-03-04T00:36:39.424Z,2.50
2019-03-04T00:39:05.383Z,2.97
2019-03-04T00:41:32.096Z,2.50
2019-03-04T00:43:58.832Z,3.00
2019-03-04T00:46:24.814Z,2.80
2019-03-04T00:48:50.762Z,2.73
2019-03-04T00:51:16.733Z,3.00
2019-03-04T00:53:42.727Z,2.70
2019-03-04T00:56:08.710Z,2.50
2019-03-04T00:58:34.675Z,3.37
2019-03-04T01:01:00.630Z,2.87
2019-03-04T01:03:27.355Z,2.43
2019-03-04T01:05:54.043Z,2.60
2019-03-04T01:08:20.026Z,2.53
2019-03-04T01:10:45.988Z,2.90
2019-03-04T01:13:11.976Z,3.20
2019-03-04T01:15:37.959Z,2.70
2019-03-04T01:18:03.948Z,3.10
2019-03-04T01:20:29.897Z,2.77
2019-03-04T01:22:55.879Z,2.70
2019-03-04T01:25:21.830Z,2.80
2019-03-04T01:27:47.801Z,2.67
2019-03-04T01:30:14.493Z,3.10
2019-03-04T01:32:40.489Z,2.47
2019-03-04T01:35:06.446Z,2.87
2019-03-04T01:37:32.408Z,2.80
2019-03-04T01:39:58.399Z,2.33
2019-03-04T01:42:24.351Z,2.50
2019-03-04T01:44:51.074Z,2.80
2019-03-04T01:47:17.029Z,2.63
2019-03-04T01:49:42.999Z,2.60
2019-03-04T01:52:08.941Z,2.67
2019-03-04T01:54:34.908Z,2.60
2019-03-04T01:57:00.856Z,2.23
2019-03-04T01:59:26.838Z,2.50
2019-03-04T02:01:52.803Z,2.00
2019-03-04T02:04:18.789Z,2.30
2019-03-04T02:06:44.750Z,2.30
2019-03-04T02:09:10.725Z,2.27
2019-03-04T02:11:36.677Z,2.40
2019-03-04T02:14:02.649Z,2.50
2019-03-04T02:16:29.352Z,2.07
2019-03-04T02:18:55.344Z,1.90
2019-03-04T02:21:21.292Z,2.10
2019-03-04T02:23:47.263Z,2.20
2019-03-04T02:26:13.977Z,1.37
2019-03-04T02:28:39.963Z,2.00
2019-03-04T02:31:05.940Z,1.90
2019-03-04T02:33:31.889Z,1.90
2019-03-04T02:35:57.889Z,2.20
2019-03-04T02:38:24.592Z,1.73
2019-03-04T02:40:50.579Z,1.67
2019-03-04T02:43:16.564Z,2.03
2019-03-04T02:45:42.546Z,1.57
2019-03-04T02:48:08.501Z,1.90
2019-03-04T02:50:34.479Z,1.90
2019-03-04T02:53:00.434Z,2.23
2019-03-04T02:55:26.404Z,2.07
2019-03-04T02:57:52.377Z,1.93
2019-03-04T03:00:18.374Z,2.07
2019-03-04T03:02:44.323Z,1.90
2019-03-04T03:05:10.307Z,2.00
2019-03-04T03:07:36.277Z,2.10
2019-03-04T03:10:03.031Z,1.70
2019-03-04T03:12:29.002Z,2.00
2019-03-04T03:14:54.998Z,1.63
2019-03-04T03:17:21.698Z,1.80
2019-03-04T03:19:47.677Z,2.00
2019-03-04T03:22:13.635Z,2.30
2019-03-04T03:24:39.627Z,1.53
2019-03-04T03:27:05.586Z,1.97
2019-03-04T03:29:31.564Z,1.70
2019-03-04T03:31:57.537Z,1.57
2019-03-04T03:34:23.519Z,1.97
2019-03-04T03:36:49.501Z,1.67
2019-03-04T03:39:15.465Z,1.60
2019-03-04T03:41:41.440Z,1.60
2019-03-04T03:44:07.394Z,1.73
2019-03-04T03:46:33.376Z,1.70
2019-03-04T03:48:59.348Z,1.67
2019-03-04T03:51:25.313Z,1.90
2019-03-04T03:53:51.258Z,1.70
2019-03-04T03:56:17.265Z,1.83
2019-03-04T03:58:43.237Z,1.80
2019-03-04T04:01:09.217Z,1.97
2019-03-04T04:03:35.155Z,1.93
2019-03-04T04:06:01.868Z,1.57
2019-03-04T04:08:27.826Z,1.70
2019-03-04T04:10:54.562Z,1.77
2019-03-04T04:13:21.259Z,1.87
2019-03-04T04:15:47.264Z,1.77
2019-03-04T04:18:13.239Z,1.90
2019-03-04T04:20:39.222Z,2.10
2019-03-04T04:23:05.180Z,1.67
2019-03-04T04:25:31.940Z,1.80
2019-03-04T04:27:58.637Z,1.40
2019-03-04T04:30:24.588Z,1.40
2019-03-04T04:32:50.572Z,1.70
2019-03-04T04:35:16.522Z,1.50
2019-03-04T04:37:42.521Z,1.50
2019-03-04T04:40:08.496Z,1.30
2019-03-04T04:42:35.223Z,1.40
2019-03-04T04:45:01.921Z,1.00
2019-03-04T04:47:27.910Z,1.10
2019-03-04T04:49:53.877Z,0.97
2019-03-04T04:52:19.881Z,1.17
2019-03-04T04:54:45.857Z,1.40
2019-03-04T04:57:12.556Z,1.23
2019-03-04T04:59:38.525Z,1.10
2019-03-04T05:02:05.265Z,1.10
2019-03-04T05:04:31.954Z,1.13
2019-03-04T05:06:57.935Z,1.70
2019-03-04T05:09:23.896Z,1.10
2019-03-04T05:11:49.889Z,1.30
2019-03-04T05:14:15.854Z,1.07
2019-03-04T05:16:42.080Z,1.03
2019-03-04T05:19:08.126Z,1.20
2019-03-04T05:21:34.845Z,0.93
2019-03-04T05:24:00.792Z,1.07
2019-03-04T05:26:26.746Z,0.93
2019-03-04T05:28:52.728Z,0.80
2019-03-04T05:31:18.696Z,0.80
2019-03-04T05:33:44.675Z,0.97
2019-03-04T05:36:10.632Z,0.80
2019-03-04T05:38:37.347Z,1.13
2019-03-04T05:41:03.301Z,0.80
2019-03-04T05:43:29.287Z,0.90
2019-03-04T05:45:55.266Z,0.97
2019-03-04T05:48:21.258Z,1.07
2019-03-04T05:50:47.964Z,0.87
2019-03-04T05:53:13.982Z,1.07
2019-03-04T05:55:39.949Z,0.83
2019-03-04T05:58:06.662Z,1.10
2019-03-04T06:00:32.630Z,1.10
2019-03-04T06:02:58.622Z,0.90
2019-03-04T06:05:25.318Z,0.83
2019-03-04T06:07:51.291Z,1.20
2019-03-04T06:10:18.063Z,1.20
2019-03-04T06:12:44.079Z,0.97
2019-03-04T06:15:10.021Z,1.00
2019-03-04T06:17:36.006Z,1.00
2019-03-04T06:20:02.705Z,1.10
2019-03-04T06:22:28.681Z,1.20
2019-03-04T06:24:54.632Z,1.20
2019-03-04T06:27:20.582Z,1.50
2019-03-04T06:29:46.562Z,1.30
2019-03-04T06:32:12.523Z,1.20
2019-03-04T06:34:38.498Z,1.03
2019-03-04T06:37:04.457Z,1.33
2019-03-04T06:39:30.461Z,1.20
2019-03-04T06:41:56.455Z,1.00
2019-03-04T06:44:22.440Z,1.50
2019-03-04T06:46:48.438Z,0.57
2019-03-04T06:49:14.430Z,0.67
2019-03-04T06:51:40.387Z,0.40
2019-03-04T06:54:06.361Z,0.40
2019-03-04T06:56:33.081Z,0.40
2019-03-04T06:58:59.830Z,0.20
2019-03-04T07:01:26.538Z,0.20
2019-03-04T07:03:52.509Z,0.30
2019-03-04T07:06:19.206Z,0.10
2019-03-04T07:08:45.168Z,0.10
2019-03-04T07:11:11.160Z,0.20
2019-03-04T07:13:37.162Z,0.13
2019-03-04T07:16:03.185Z,0.30
2019-03-04T07:18:29.138Z,0.30
2019-03-04T07:20:55.138Z,0.20
2019-03-04T07:23:21.099Z,0.20
2019-03-04T07:25:47.823Z,0.20
2019-03-04T07:28:14.550Z,0.20
2019-03-04T07:30:40.541Z,0.30
2019-03-04T07:33:06.504Z,0.20
2019-03-04T07:35:32.491Z,0.30
2019-03-04T07:37:58.476Z,0.40
2019-03-04T07:40:25.221Z,0.23
2019-03-04T07:42:51.184Z,0.27
2019-03-04T07:45:17.183Z,0.40
2019-03-04T07:47:43.147Z,0.13
2019-03-04T07:50:09.115Z,0.23
2019-03-04T07:52:35.820Z,0.30
2019-03-04T07:55:01.809Z,0.37
2019-03-04T07:57:27.790Z,0.40
2019-03-04T07:59:54.489Z,0.40
2019-03-04T08:02:20.485Z,0.50
2019-03-04T08:04:46.457Z,0.53
2019-03-04T08:07:12.440Z,0.70
2019-03-04T08:09:38.414Z,0.50
2019-03-04T08:12:05.142Z,0.50
2019-03-04T08:14:31.093Z,0.50
2019-03-04T08:16:57.069Z,0.50
2019-03-04T08:19:23.048Z,0.80
2019-03-04T08:21:49.026Z,0.47
2019-03-04T08:24:15.000Z,0.43
2019-03-04T08:26:40.990Z,0.60
2019-03-04T08:29:07.003Z,0.80
2019-03-04T08:31:32.970Z,1.20
2019-03-04T08:33:58.955Z,0.60
2019-03-04T08:36:25.683Z,0.77
2019-03-04T08:38:51.670Z,0.57
2019-03-04T08:41:17.628Z,0.60
2019-03-04T08:43:43.641Z,1.00
2019-03-04T08:46:09.599Z,0.53
2019-03-04T08:48:36.310Z,0.80
2019-03-04T08:51:03.049Z,0.77
2019-03-04T08:53:30.918Z,0.90
2019-03-04T08:55:55.038Z,0.70
2019-03-04T08:58:21.001Z,0.70
2019-03-04T09:00:46.975Z,0.70
2019-03-04T09:03:13.663Z,1.13
2019-03-04T09:05:39.671Z,0.93
2019-03-04T09:08:05.637Z,0.90
2019-03-04T09:10:31.625Z,0.80
2019-03-04T09:12:57.603Z,0.83
2019-03-04T09:15:24.328Z,0.70
2019-03-04T09:17:50.281Z,1.13
2019-03-04T09:20:16.269Z,1.00
2019-03-04T09:22:42.231Z,0.80
2019-03-04T09:25:08.218Z,0.57
2019-03-04T09:27:34.924Z,1.00
2019-03-04T09:30:00.889Z,0.90
2019-03-04T09:32:27.593Z,0.70
2019-03-04T09:34:53.570Z,0.70
2019-03-04T09:37:19.569Z,0.67
2019-03-04T09:39:46.255Z,0.60
2019-03-04T09:42:12.242Z,0.60
2019-03-04T09:44:38.986Z,0.40
2019-03-04T09:47:05.736Z,0.50
2019-03-04T09:49:31.702Z,0.50
2019-03-04T09:51:57.703Z,0.60
2019-03-04T09:54:23.662Z,0.70
2019-03-04T09:56:49.673Z,0.87
2019-03-04T09:59:15.654Z,0.50
2019-03-04T10:01:41.620Z,0.60
2019-03-04T10:04:08.304Z,0.70
2019-03-04T10:06:34.302Z,0.50
2019-03-04T10:09:00.258Z,0.30
2019-03-04T10:11:26.214Z,0.30
2019-03-04T10:13:52.203Z,0.20
2019-03-04T10:16:18.976Z,0.07
2019-03-04T10:18:44.930Z,0.27
2019-03-04T10:21:10.893Z,0.20
2019-03-04T10:23:36.865Z,0.30
2019-03-04T10:26:02.829Z,0.13
2019-03-04T10:28:28.823Z,0.20
2019-03-04T10:30:54.781Z,0.10
2019-03-04T10:33:20.735Z,0.17
2019-03-04T10:35:46.779Z,0.10
2019-03-04T10:38:22.175Z,0.27
2019-03-04T10:40:38.775Z,0.60
2019-03-04T10:43:04.740Z,0.10
2019-03-04T10:45:30.741Z,0.30
2019-03-04T10:47:56.703Z,0.30
2019-03-04T10:50:22.702Z,0.30
2019-03-04T10:52:48.654Z,0.50
2019-03-04T10:55:15.400Z,0.37
2019-03-04T10:57:42.099Z,0.40
2019-03-04T11:00:08.080Z,0.60
2019-03-04T11:02:34.036Z,0.80
2019-03-04T11:05:00.035Z,0.50
2019-03-04T11:07:25.997Z,0.37
2019-03-04T11:09:51.974Z,0.37
2019-03-04T11:12:17.925Z,0.73
2019-03-04T11:14:43.888Z,0.70
2019-03-04T11:17:09.874Z,0.80
2019-03-04T11:19:35.857Z,0.80
2019-03-04T11:22:02.590Z,1.00
2019-03-04T11:24:29.274Z,1.30
2019-03-04T11:26:55.244Z,1.30
2019-03-04T11:29:21.233Z,1.13
2019-03-04T11:31:47.217Z,1.27
2019-03-04T11:34:13.181Z,1.07
2019-03-04T11:36:39.178Z,1.00
2019-03-04T11:39:05.149Z,1.10
2019-03-04T11:41:31.144Z,1.60
2019-03-04T11:43:57.122Z,1.00
2019-03-04T11:46:23.121Z,0.80
2019-03-04T11:48:49.086Z,1.00
2019-03-04T11:51:15.076Z,1.23
2019-03-04T11:53:41.784Z,1.13
2019-03-04T11:56:07.764Z,1.23
2019-03-04T11:58:33.728Z,0.70
2019-03-04T12:00:59.713Z,0.70
2019-03-04T12:03:25.654Z,1.20
2019-03-04T12:05:51.636Z,0.87
2019-03-04T12:08:18.329Z,0.90
2019-03-04T12:10:44.319Z,0.90
2019-03-04T12:13:10.281Z,1.20
2019-03-04T12:15:36.249Z,0.60
2019-03-04T12:18:02.974Z,0.50
2019-03-04T12:20:28.945Z,1.10
2019-03-04T12:22:54.894Z,0.90
2019-03-04T12:25:20.845Z,0.60
2019-03-04T12:27:47.565Z,0.80
2019-03-04T12:30:13.516Z,0.90
2019-03-04T12:32:40.225Z,0.60
2019-03-04T12:35:06.199Z,0.87
2019-03-04T12:37:32.196Z,0.80
2019-03-04T12:39:58.204Z,0.70
2019-03-04T12:42:25.769Z,0.80
2019-03-04T12:44:52.482Z,0.93
2019-03-04T12:47:18.480Z,1.10
2019-03-04T12:49:44.431Z,1.00
2019-03-04T12:52:10.423Z,0.70
2019-03-04T12:54:36.392Z,0.90
2019-03-04T12:57:02.400Z,0.70
2019-03-04T12:59:28.366Z,0.97
2019-03-04T13:01:55.101Z,0.87
2019-03-04T13:04:21.791Z,1.30
2019-03-04T13:06:47.781Z,0.97
2019-03-04T13:09:14.817Z,1.00
2019-03-04T13:11:39.830Z,1.60
2019-03-04T13:14:05.808Z,0.87
2019-03-04T13:16:31.790Z,0.97
2019-03-04T13:18:57.756Z,1.00
2019-03-04T13:21:23.755Z,1.20
2019-03-04T13:23:49.731Z,0.90
2019-03-04T13:26:15.746Z,1.10
2019-03-04T13:28:42.441Z,1.57
2019-03-04T13:31:08.423Z,1.00
2019-03-04T13:33:34.412Z,1.00
2019-03-04T13:36:00.396Z,0.77
2019-03-04T13:38:26.398Z,1.30
2019-03-04T13:40:52.343Z,0.87
2019-03-04T13:43:18.352Z,1.70
2019-03-04T13:45:44.329Z,1.10
2019-03-04T13:48:11.079Z,1.03
2019-03-04T13:50:37.790Z,1.10
2019-03-04T13:53:03.786Z,1.07
2019-03-04T13:55:29.748Z,1.50
2019-03-04T13:57:56.379Z,1.93
2019-03-04T14:00:22.353Z,0.70
2019-03-04T14:02:48.381Z,1.37
2019-03-04T14:05:14.340Z,0.90
2019-03-04T14:07:40.335Z,1.40
2019-03-04T14:10:06.325Z,1.33
2019-03-04T14:12:33.062Z,1.63
2019-03-04T14:14:59.779Z,1.40
2019-03-04T14:17:25.777Z,1.47
2019-03-04T14:19:51.784Z,1.77
2019-03-04T14:22:17.763Z,0.80
2019-03-04T14:24:44.508Z,1.27
2019-03-04T14:27:10.525Z,1.30
2019-03-04T14:29:37.285Z,1.10
2019-03-04T14:32:03.979Z,0.53
2019-03-04T14:34:29.966Z,0.80
2019-03-04T14:36:55.943Z,1.10
2019-03-04T14:39:21.930Z,0.87
2019-03-04T14:41:47.891Z,0.80
2019-03-04T14:44:13.887Z,1.20
2019-03-04T14:46:39.881Z,1.23
2019-03-04T14:49:06.586Z,0.80
2019-03-04T14:51:32.528Z,1.07
2019-03-04T14:53:58.541Z,0.97
2019-03-04T14:56:25.216Z,0.60
2019-03-04T14:59:09.595Z,1.40
2019-03-04T15:01:17.222Z,1.20
2019-03-04T15:03:43.966Z,1.50
2019-03-04T15:06:10.665Z,1.70
2019-03-04T15:08:36.636Z,1.17
2019-03-04T15:11:03.371Z,1.27
2019-03-04T15:13:30.080Z,1.27
2019-03-04T15:16:01.408Z,1.10
2019-03-04T15:18:22.077Z,0.73
2019-03-04T15:20:48.061Z,1.30
2019-03-04T15:23:14.013Z,0.90
2019-03-04T15:25:40.015Z,1.80
2019-03-04T15:28:06.021Z,1.30
2019-03-04T15:30:32.010Z,1.30
2019-03-04T15:32:57.981Z,1.33
2019-03-04T15:35:24.730Z,0.90
2019-03-04T15:37:51.417Z,1.13
2019-03-04T15:40:17.423Z,1.27
2019-03-04T15:42:43.378Z,1.67
2019-03-04T15:45:09.382Z,1.40
2019-03-04T15:47:36.688Z,1.23
2019-03-04T15:50:08.169Z,1.10
2019-03-04T15:52:34.130Z,0.90
2019-03-04T15:55:00.312Z,1.13
2019-03-04T15:57:26.900Z,1.00
2019-03-04T15:59:52.874Z,1.17
2019-03-04T16:02:18.827Z,1.13
2019-03-04T16:04:44.779Z,1.27
2019-03-04T16:07:10.758Z,1.30
2019-03-04T16:09:36.718Z,0.97
2019-03-04T16:12:02.705Z,1.10
2019-03-04T16:14:28.667Z,1.60
2019-03-04T16:16:54.684Z,0.80
2019-03-04T16:19:20.621Z,0.83
2019-03-04T16:21:46.611Z,0.90
2019-03-04T16:24:12.563Z,1.50
2019-03-04T16:26:38.538Z,1.10
2019-03-04T16:29:04.503Z,1.03
2019-03-04T16:31:30.472Z,1.50
2019-03-04T16:33:56.424Z,1.17
2019-03-04T16:36:22.427Z,1.00
2019-03-04T16:38:48.396Z,1.00
2019-03-04T16:41:14.381Z,1.30
2019-03-04T16:43:40.390Z,1.47
2019-03-04T16:46:06.388Z,1.40
2019-03-04T16:48:33.085Z,1.30
2019-03-04T16:50:59.056Z,0.90
2019-03-04T16:53:25.820Z,1.33
2019-03-04T16:55:51.771Z,1.57
2019-03-04T16:58:17.754Z,1.33
2019-03-04T17:00:43.710Z,1.30
2019-03-04T17:03:09.702Z,0.80
2019-03-04T17:05:35.658Z,1.70
2019-03-04T17:08:01.648Z,1.20
2019-03-04T17:10:27.596Z,0.80
2019-03-04T17:12:54.494Z,1.40
2019-03-04T17:15:19.615Z,1.13
2019-03-04T17:17:45.605Z,1.37
2019-03-04T17:20:11.567Z,1.30
2019-03-04T17:22:37.543Z,1.30
2019-03-04T17:25:03.510Z,1.17
2019-03-04T17:27:29.499Z,1.27
2019-03-04T17:29:56.228Z,1.23
2019-03-04T17:32:22.238Z,0.83
2019-03-04T17:34:48.215Z,1.10
2019-03-04T17:37:14.173Z,0.90
2019-03-04T17:39:40.182Z,0.90
2019-03-04T17:42:06.139Z,1.27
2019-03-04T17:44:32.129Z,1.10
2019-03-04T17:46:58.090Z,0.97
2019-03-04T17:49:24.073Z,1.07
2019-03-04T17:51:50.024Z,1.07
2019-03-04T17:54:16.005Z,1.20
2019-03-04T17:56:41.959Z,1.03
2019-03-04T17:59:07.955Z,1.27
2019-03-04T18:01:33.931Z,1.50
2019-03-04T18:03:59.918Z,1.23
2019-03-04T18:06:25.882Z,0.97
2019-03-04T18:08:51.872Z,1.33
2019-03-04T18:11:17.843Z,0.80
2019-03-04T18:13:44.582Z,1.00
2019-03-04T18:16:11.300Z,1.10
2019-03-04T18:18:37.240Z,1.37
2019-03-04T18:21:03.969Z,0.97
2019-03-04T18:23:30.678Z,1.13
2019-03-04T18:25:56.679Z,1.50
2019-03-04T18:28:22.640Z,1.30
2019-03-04T18:30:48.635Z,1.27
2019-03-04T18:33:14.649Z,0.80
2019-03-04T18:35:40.657Z,0.80
2019-03-04T18:38:06.672Z,1.50
2019-03-04T18:40:32.673Z,1.43
2019-03-04T18:42:59.408Z,1.37
2019-03-04T18:45:25.393Z,1.43
2019-03-04T18:47:51.350Z,1.50
2019-03-04T18:50:17.320Z,1.37
2019-03-04T18:52:43.318Z,0.93
2019-03-04T18:55:10.001Z,1.40
2019-03-04T18:57:35.978Z,1.30
2019-03-04T19:00:02.680Z,1.57
2019-03-04T19:02:28.671Z,1.40
2019-03-04T19:04:54.641Z,1.50
2019-03-04T19:07:20.635Z,1.27
2019-03-04T19:09:46.619Z,0.90
2019-03-04T19:12:12.638Z,1.37
2019-03-04T19:14:39.348Z,1.00
2019-03-04T19:17:05.330Z,0.90
2019-03-04T19:19:31.295Z,1.10
2019-03-04T19:21:57.304Z,1.40
2019-03-04T19:24:23.276Z,1.10
2019-03-04T19:26:49.242Z,1.03
2019-03-04T19:29:15.234Z,0.67
2019-03-04T19:31:41.210Z,1.20
2019-03-04T19:34:07.238Z,1.13
2019-03-04T19:36:33.202Z,0.90
2019-03-04T19:38:59.185Z,1.20
2019-03-04T19:41:26.123Z,1.33
2019-03-04T19:43:52.273Z,1.53
2019-03-04T19:46:18.342Z,1.77
2019-03-04T19:48:44.385Z,0.93
2019-03-04T19:51:10.516Z,1.70
2019-03-04T19:53:36.633Z,1.60
2019-03-04T19:56:02.635Z,1.03
2019-03-04T19:58:28.649Z,1.50
2019-03-04T20:00:54.989Z,1.37
2019-03-04T20:03:21.751Z,1.20
2019-03-04T20:05:47.752Z,0.90
2019-03-04T20:08:13.721Z,1.47
2019-03-04T20:10:39.726Z,1.50
2019-03-04T20:13:05.681Z,1.30
2019-03-04T20:15:32.416Z,1.47
2019-03-04T20:17:59.147Z,1.07
2019-03-04T20:20:25.153Z,1.70
2019-03-04T20:22:51.094Z,1.70
2019-03-04T20:25:17.069Z,1.80
2019-03-04T20:27:43.037Z,1.23
2019-03-04T20:30:09.010Z,1.33
2019-03-04T20:32:34.972Z,1.80
2019-03-04T20:35:01.736Z,1.77
2019-03-04T20:37:28.451Z,1.53
2019-03-04T20:39:54.411Z,1.00
2019-03-04T20:42:21.158Z,1.30
2019-03-04T20:44:47.133Z,1.10
2019-03-04T20:47:13.133Z,1.43
2019-03-04T20:49:39.108Z,1.37
2019-03-04T20:52:05.828Z,1.30
2019-03-04T20:54:31.779Z,1.87
2019-03-04T20:56:58.508Z,1.17
2019-03-04T20:59:25.224Z,1.70
2019-03-04T21:01:51.214Z,1.47
2019-03-04T21:04:17.169Z,1.37
2019-03-04T21:06:43.144Z,2.40
2019-03-04T21:09:09.145Z,1.80
2019-03-04T21:11:35.869Z,1.80
2019-03-04T21:14:01.839Z,1.30
2019-03-04T21:16:27.851Z,1.53
2019-03-04T21:18:53.807Z,1.67
2019-03-04T21:21:19.809Z,2.47
2019-03-04T21:23:45.751Z,1.67
2019-03-04T21:26:11.741Z,1.53
2019-03-04T21:28:37.689Z,1.13
2019-03-04T21:31:03.679Z,1.80
2019-03-04T21:33:29.666Z,1.27
2019-03-04T21:35:55.620Z,1.60
2019-03-04T21:38:22.363Z,1.90
2019-03-04T21:40:49.066Z,1.50
2019-03-04T21:43:15.037Z,1.83
2019-03-04T21:45:41.060Z,1.57
2019-03-04T21:48:07.075Z,1.87
2019-03-04T21:50:33.090Z,1.60
2019-03-04T21:52:59.156Z,1.70
2019-03-04T21:55:25.170Z,1.60
2019-03-04T21:57:51.189Z,1.50
2019-03-04T22:00:17.191Z,2.20
2019-03-04T22:02:43.196Z,2.63
2019-03-04T22:05:09.197Z,2.10
2019-03-04T22:07:37.251Z,1.97
2019-03-04T22:10:01.248Z,1.70
2019-03-04T22:12:27.262Z,2.00
2019-03-04T22:14:53.241Z,2.40
2019-03-04T22:17:19.208Z,1.67
2019-03-04T22:19:45.212Z,2.27
2019-03-04T22:22:11.195Z,2.40
2019-03-04T22:24:37.936Z,2.00
2019-03-04T22:27:04.640Z,2.10
2019-03-04T22:29:30.723Z,2.20
2019-03-04T22:31:57.435Z,2.17
2019-03-04T22:34:24.209Z,2.33
2019-03-04T22:36:50.223Z,2.70
2019-03-04T22:39:16.194Z,2.73
2019-03-04T22:41:42.170Z,2.70
2019-03-04T22:44:08.159Z,2.20
2019-03-04T22:46:34.119Z,1.83
2019-03-04T22:49:00.127Z,1.97
2019-03-04T22:51:26.107Z,2.60
2019-03-04T22:53:52.113Z,2.17
2019-03-04T22:56:18.069Z,1.80
2019-03-04T22:58:44.026Z,2.40
2019-03-04T23:01:10.738Z,1.90
2019-03-04T23:03:36.745Z,2.23
2019-03-04T23:06:02.746Z,2.10
2019-03-04T23:08:28.695Z,2.13
2019-03-04T23:10:54.692Z,1.80
2019-03-04T23:13:20.648Z,2.07
2019-03-04T23:15:46.642Z,2.63
2019-03-04T23:18:12.630Z,2.17
2019-03-04T23:20:38.613Z,1.90
2019-03-04T23:23:04.599Z,1.77
2019-03-04T23:25:31.362Z,2.47
2019-03-04T23:27:57.346Z,1.97
2019-03-04T23:30:23.313Z,2.10
2019-03-04T23:32:49.310Z,3.37
2019-03-04T23:35:15.298Z,2.50
2019-03-04T23:37:42.039Z,2.60
2019-03-04T23:40:08.007Z,2.23
2019-03-04T23:42:33.975Z,2.73
2019-03-04T23:45:00.673Z,2.00
2019-03-04T23:47:27.437Z,2.30
2019-03-04T23:49:53.398Z,2.30
2019-03-04T23:52:20.119Z,2.10
2019-03-04T23:54:46.814Z,2.27
2019-03-04T23:57:12.790Z,2.23
2019-03-04T23:59:38.762Z,1.90
